createdAt,value
2018-06-29T00:01:21.919Z,23.05
2018-06-29T00:03:50.331Z,23.00
2018-06-29T00:06:18.719Z,23.01
2018-06-29T00:08:47.163Z,23.00
2018-06-29T00:11:15.627Z,22.97
2018-06-29T00:13:44.140Z,22.96
2018-06-29T00:16:12.512Z,22.92
2018-06-29T00:18:41.063Z,22.93
2018-06-29T00:21:09.485Z,22.91
2018-06-29T00:23:37.893Z,22.89
2018-06-29T00:26:06.338Z,22.90
2018-06-29T00:28:34.687Z,22.90
2018-06-29T00:31:03.139Z,22.88
2018-06-29T00:33:31.640Z,22.86
2018-06-29T00:36:00.083Z,22.85
2018-06-29T00:41:19.175Z,22.78
2018-06-29T00:43:47.640Z,22.77
2018-06-29T00:46:16.772Z,22.74
2018-06-29T00:48:45.155Z,22.72
2018-06-29T00:51:13.994Z,22.73
2018-06-29T00:53:42.556Z,22.71
2018-06-29T00:56:11.036Z,22.68
2018-06-29T00:58:39.425Z,22.67
2018-06-29T01:01:07.966Z,22.62
2018-06-29T01:03:36.392Z,22.60
2018-06-29T01:06:04.860Z,22.56
2018-06-29T01:08:33.307Z,22.51
2018-06-29T01:11:01.687Z,22.45
2018-06-29T01:13:30.306Z,22.38
2018-06-29T01:15:58.684Z,22.32
2018-06-29T01:18:27.048Z,22.26
2018-06-29T01:20:55.985Z,22.22
2018-06-29T01:23:24.416Z,22.17
2018-06-29T01:25:52.805Z,22.15
2018-06-29T01:28:21.202Z,22.12
2018-06-29T01:30:49.633Z,22.06
2018-06-29T01:33:18.067Z,22.03
2018-06-29T01:35:46.477Z,22.02
2018-06-29T01:38:14.867Z,22.00
2018-06-29T01:40:43.287Z,21.96
2018-06-29T01:43:11.671Z,21.93
2018-06-29T01:45:40.199Z,21.91
2018-06-29T01:48:08.983Z,21.89
2018-06-29T01:50:37.872Z,21.88
2018-06-29T01:53:06.792Z,21.86
2018-06-29T01:55:35.447Z,21.83
2018-06-29T01:58:03.852Z,21.79
2018-06-29T02:00:32.346Z,21.75
2018-06-29T02:03:00.709Z,21.72
2018-06-29T02:05:29.107Z,21.70
2018-06-29T02:07:57.514Z,21.68
2018-06-29T02:10:25.917Z,21.63
2018-06-29T02:12:54.331Z,21.57
2018-06-29T02:15:23.237Z,21.53
2018-06-29T02:17:51.627Z,21.50
2018-06-29T02:20:19.996Z,21.47
2018-06-29T02:22:48.355Z,21.44
2018-06-29T02:25:16.710Z,21.41
2018-06-29T02:27:45.174Z,21.37
2018-06-29T02:30:13.456Z,21.33
2018-06-29T02:32:41.873Z,21.29
2018-06-29T02:35:10.272Z,21.25
2018-06-29T02:37:38.771Z,21.22
2018-06-29T02:40:07.184Z,21.19
2018-06-29T02:42:35.537Z,21.17
2018-06-29T02:45:03.948Z,21.15
2018-06-29T02:47:32.350Z,21.14
2018-06-29T02:50:00.755Z,21.12
2018-06-29T02:52:29.127Z,21.14
2018-06-29T02:54:57.510Z,21.14
2018-06-29T02:57:25.925Z,21.15
2018-06-29T02:59:54.233Z,21.15
2018-06-29T03:02:22.585Z,21.12
2018-06-29T03:04:50.950Z,21.11
2018-06-29T03:07:19.323Z,21.11
2018-06-29T03:09:47.732Z,21.08
2018-06-29T03:12:16.154Z,21.06
2018-06-29T03:14:44.609Z,21.08
2018-06-29T03:17:12.943Z,21.07
2018-06-29T03:19:41.358Z,21.08
2018-06-29T03:22:10.914Z,21.08
2018-06-29T03:24:39.256Z,21.10
2018-06-29T03:27:07.627Z,21.09
2018-06-29T03:29:35.960Z,21.06
2018-06-29T03:32:04.304Z,21.06
2018-06-29T03:34:32.761Z,21.05
2018-06-29T03:37:01.115Z,21.03
2018-06-29T03:39:29.639Z,21.02
2018-06-29T03:41:58.142Z,21.02
2018-06-29T03:44:26.520Z,21.02
2018-06-29T03:46:54.871Z,21.00
2018-06-29T03:49:23.424Z,20.95
2018-06-29T03:51:51.867Z,20.88
2018-06-29T03:54:20.483Z,20.85
2018-06-29T03:56:48.830Z,20.82
2018-06-29T03:59:17.174Z,20.78
2018-06-29T04:01:45.595Z,20.75
2018-06-29T04:04:14.012Z,20.74
2018-06-29T04:06:42.506Z,20.76
2018-06-29T04:09:12.313Z,20.76
2018-06-29T04:11:40.975Z,20.77
2018-06-29T04:14:09.295Z,20.78
2018-06-29T04:16:38.397Z,20.79
2018-06-29T04:19:07.153Z,20.80
2018-06-29T04:21:35.725Z,20.82
2018-06-29T04:24:04.323Z,20.84
2018-06-29T04:26:33.857Z,20.87
2018-06-29T04:29:02.743Z,20.88
2018-06-29T04:31:35.709Z,20.87
2018-06-29T04:34:04.101Z,20.86
2018-06-29T04:36:32.520Z,20.84
2018-06-29T04:39:00.929Z,20.84
2018-06-29T04:41:29.328Z,20.81
2018-06-29T04:43:57.740Z,20.79
2018-06-29T04:46:30.283Z,20.78
2018-06-29T04:48:58.709Z,20.81
2018-06-29T04:51:27.180Z,20.83
2018-06-29T04:54:00.596Z,20.83
2018-06-29T04:56:32.300Z,20.83
2018-06-29T04:59:00.777Z,20.82
2018-06-29T05:01:29.111Z,20.83
2018-06-29T05:03:57.518Z,20.84
2018-06-29T05:06:25.855Z,20.84
2018-06-29T05:08:54.205Z,20.85
2018-06-29T05:11:22.683Z,20.86
2018-06-29T05:13:51.349Z,20.87
2018-06-29T05:16:19.751Z,20.90
2018-06-29T05:18:48.096Z,20.92
2018-06-29T05:21:16.511Z,20.93
2018-06-29T05:23:45.083Z,20.94
2018-06-29T05:26:13.544Z,20.94
2018-06-29T05:28:42.129Z,20.97
2018-06-29T05:31:10.451Z,21.01
2018-06-29T05:33:38.785Z,21.02
2018-06-29T05:36:07.203Z,21.03
2018-06-29T05:38:35.760Z,21.03
2018-06-29T05:41:04.337Z,21.08
2018-06-29T05:43:32.797Z,21.11
2018-06-29T05:46:07.856Z,21.14
2018-06-29T05:48:36.228Z,21.19
2018-06-29T05:51:04.643Z,21.23
2018-06-29T05:53:33.111Z,21.26
2018-06-29T05:56:01.510Z,21.28
2018-06-29T05:58:29.943Z,21.31
2018-06-29T06:00:58.364Z,21.32
2018-06-29T06:03:26.743Z,21.35
2018-06-29T06:05:55.273Z,21.36
2018-06-29T06:08:23.804Z,21.35
2018-06-29T06:10:52.342Z,21.36
2018-06-29T06:13:20.882Z,21.39
2018-06-29T06:15:49.212Z,21.43
2018-06-29T06:18:17.604Z,21.45
2018-06-29T06:20:46.029Z,21.47
2018-06-29T06:23:20.836Z,21.48
2018-06-29T06:25:49.452Z,21.49
2018-06-29T06:28:18.483Z,21.51
2018-06-29T06:30:46.881Z,21.55
2018-06-29T06:33:15.378Z,21.59
2018-06-29T06:35:43.640Z,21.62
2018-06-29T06:38:12.374Z,21.65
2018-06-29T06:40:40.828Z,21.67
2018-06-29T06:43:09.407Z,21.71
2018-06-29T06:45:37.893Z,21.73
2018-06-29T06:48:06.367Z,21.75
2018-06-29T06:50:34.847Z,21.77
2018-06-29T06:53:03.283Z,21.81
2018-06-29T06:55:31.629Z,21.85
2018-06-29T06:57:59.987Z,21.89
2018-06-29T07:00:28.419Z,21.91
2018-06-29T07:02:56.771Z,21.94
2018-06-29T07:05:25.858Z,21.97
2018-06-29T07:07:54.256Z,22.00
2018-06-29T07:10:22.649Z,22.03
2018-06-29T07:12:51.152Z,22.08
2018-06-29T07:15:19.567Z,22.10
2018-06-29T07:17:48.036Z,22.15
2018-06-29T07:20:16.411Z,22.17
2018-06-29T07:22:44.795Z,22.22
2018-06-29T07:25:13.227Z,22.26
2018-06-29T07:27:42.059Z,22.30
2018-06-29T07:30:10.520Z,22.32
2018-06-29T07:32:38.884Z,22.37
2018-06-29T07:35:09.050Z,22.40
2018-06-29T07:37:38.815Z,22.42
2018-06-29T07:40:07.266Z,22.46
2018-06-29T07:42:35.735Z,22.50
2018-06-29T07:45:04.214Z,22.51
2018-06-29T07:47:32.693Z,22.54
2018-06-29T07:50:01.084Z,22.56
2018-06-29T07:52:29.527Z,22.59
2018-06-29T07:54:57.950Z,22.61
2018-06-29T07:57:27.375Z,22.63
2018-06-29T07:59:55.798Z,22.69
2018-06-29T08:02:25.196Z,22.73
2018-06-29T08:04:54.179Z,22.76
2018-06-29T08:07:22.763Z,22.80
2018-06-29T08:09:51.159Z,22.80
2018-06-29T08:12:19.541Z,22.83
2018-06-29T08:14:47.933Z,22.83
2018-06-29T08:17:16.267Z,22.84
2018-06-29T08:19:44.666Z,22.88
2018-06-29T08:22:13.036Z,22.89
2018-06-29T08:24:54.515Z,22.92
2018-06-29T08:27:22.944Z,22.93
2018-06-29T08:29:52.286Z,22.97
2018-06-29T08:32:20.809Z,23.00
2018-06-29T08:34:49.195Z,23.02
2018-06-29T08:37:17.567Z,23.06
2018-06-29T08:39:45.939Z,23.07
2018-06-29T08:42:14.448Z,23.10
2018-06-29T08:44:42.963Z,23.13
2018-06-29T08:47:11.407Z,23.14
2018-06-29T08:49:39.926Z,23.18
2018-06-29T08:52:08.293Z,23.19
2018-06-29T08:54:37.595Z,23.21
2018-06-29T08:57:06.039Z,23.23
2018-06-29T08:59:34.486Z,23.28
2018-06-29T09:02:02.981Z,23.29
2018-06-29T09:04:31.303Z,23.31
2018-06-29T09:06:59.728Z,23.35
2018-06-29T09:09:28.201Z,23.37
2018-06-29T09:11:56.679Z,23.41
2018-06-29T09:14:25.167Z,23.43
2018-06-29T09:16:53.627Z,23.46
2018-06-29T09:19:22.027Z,23.50
2018-06-29T09:21:50.371Z,23.53
2018-06-29T09:24:18.891Z,23.55
2018-06-29T09:26:47.291Z,23.56
2018-06-29T09:29:15.771Z,23.60
2018-06-29T09:31:44.252Z,23.64
2018-06-29T09:34:12.927Z,23.67
2018-06-29T09:36:41.448Z,23.69
2018-06-29T09:39:11.583Z,23.72
2018-06-29T09:41:40.179Z,23.76
2018-06-29T09:44:08.631Z,23.78
2018-06-29T09:46:37.033Z,23.78
2018-06-29T09:49:05.525Z,23.82
2018-06-29T09:51:34.007Z,23.85
2018-06-29T09:54:02.451Z,23.90
2018-06-29T09:56:30.758Z,23.94
2018-06-29T09:58:59.210Z,23.98
2018-06-29T10:01:27.675Z,24.01
2018-06-29T10:03:56.039Z,24.05
2018-06-29T10:06:24.486Z,24.10
2018-06-29T10:08:53.127Z,24.16
2018-06-29T10:11:21.507Z,24.23
2018-06-29T10:13:49.879Z,24.27
2018-06-29T10:16:18.310Z,24.35
2018-06-29T10:18:46.719Z,24.40
2018-06-29T10:21:15.245Z,24.44
2018-06-29T10:23:43.606Z,24.47
2018-06-29T10:26:12.292Z,24.49
2018-06-29T10:28:40.706Z,24.54
2018-06-29T10:31:09.127Z,24.58
2018-06-29T10:33:37.605Z,24.62
2018-06-29T10:36:07.299Z,24.75
2018-06-29T10:38:35.631Z,24.81
2018-06-29T10:41:04.141Z,24.86
2018-06-29T10:43:32.477Z,24.97
2018-06-29T10:46:00.859Z,25.08
2018-06-29T10:48:29.204Z,25.20
2018-06-29T10:50:57.754Z,25.32
2018-06-29T10:53:26.160Z,25.62
2018-06-29T10:55:54.587Z,25.93
2018-06-29T10:58:23.006Z,26.26
2018-06-29T11:00:51.365Z,26.57
2018-06-29T11:03:19.783Z,26.84
2018-06-29T11:05:48.271Z,27.10
2018-06-29T11:08:16.634Z,27.36
2018-06-29T11:10:45.091Z,27.61
2018-06-29T11:13:13.423Z,27.85
2018-06-29T11:15:41.791Z,28.00
2018-06-29T11:18:11.243Z,28.18
2018-06-29T11:20:39.692Z,28.32
2018-06-29T11:23:08.137Z,28.50
2018-06-29T11:25:36.618Z,28.64
2018-06-29T11:28:05.263Z,28.73
2018-06-29T11:30:33.841Z,28.83
2018-06-29T11:33:02.197Z,28.97
2018-06-29T11:35:30.767Z,29.10
2018-06-29T11:37:59.223Z,29.32
2018-06-29T11:40:27.669Z,29.53
2018-06-29T11:42:56.078Z,29.67
2018-06-29T11:45:24.468Z,29.84
2018-06-29T11:47:52.849Z,29.96
2018-06-29T11:50:21.219Z,30.00
2018-06-29T11:52:49.807Z,30.09
2018-06-29T11:55:18.118Z,30.20
2018-06-29T11:57:46.487Z,30.25
2018-06-29T12:00:14.879Z,30.36
2018-06-29T12:02:43.519Z,30.50
2018-06-29T12:05:11.972Z,30.55
2018-06-29T12:07:40.394Z,30.69
2018-06-29T12:10:08.823Z,30.82
2018-06-29T12:12:37.371Z,30.85
2018-06-29T12:15:06.320Z,30.89
2018-06-29T12:17:34.670Z,30.89
2018-06-29T12:20:03.157Z,30.96
2018-06-29T12:22:31.622Z,31.10
2018-06-29T12:25:00.024Z,31.28
2018-06-29T12:27:28.514Z,31.37
2018-06-29T12:29:56.863Z,31.48
2018-06-29T12:32:25.387Z,31.63
2018-06-29T12:34:53.867Z,31.75
2018-06-29T12:37:22.313Z,31.89
2018-06-29T12:39:50.839Z,32.03
2018-06-29T12:42:19.324Z,32.07
2018-06-29T12:44:47.825Z,32.15
2018-06-29T12:47:16.135Z,32.21
2018-06-29T12:49:44.525Z,32.25
2018-06-29T12:52:12.919Z,32.18
2018-06-29T12:54:41.248Z,32.18
2018-06-29T12:57:09.687Z,32.27
2018-06-29T12:59:38.092Z,32.38
2018-06-29T13:02:07.230Z,32.43
2018-06-29T13:04:35.696Z,32.52
2018-06-29T13:07:04.084Z,32.61
2018-06-29T13:09:32.473Z,32.63
2018-06-29T13:12:00.874Z,32.57
2018-06-29T13:14:29.721Z,32.52
2018-06-29T13:16:58.127Z,32.55
2018-06-29T13:19:26.531Z,32.49
2018-06-29T13:21:55.175Z,32.53
2018-06-29T13:24:23.704Z,32.61
2018-06-29T13:26:52.096Z,32.68
2018-06-29T13:29:20.463Z,32.61
2018-06-29T13:31:48.884Z,32.56
2018-06-29T13:34:17.275Z,32.53
2018-06-29T13:36:45.639Z,32.56
2018-06-29T13:39:13.988Z,32.60
2018-06-29T13:41:42.444Z,32.65
2018-06-29T13:44:10.925Z,32.66
2018-06-29T13:46:39.311Z,32.69
2018-06-29T13:49:07.734Z,32.77
2018-06-29T13:51:36.143Z,32.84
2018-06-29T13:54:04.531Z,32.90
2018-06-29T13:56:32.955Z,32.95
2018-06-29T13:59:01.322Z,32.94
2018-06-29T14:01:29.929Z,32.95
2018-06-29T14:03:58.396Z,33.01
2018-06-29T14:06:26.832Z,32.94
2018-06-29T14:08:55.232Z,32.85
2018-06-29T14:11:23.651Z,32.91
2018-06-29T14:13:52.278Z,32.91
2018-06-29T14:16:20.852Z,32.95
2018-06-29T14:18:49.209Z,32.90
2018-06-29T14:21:17.615Z,32.82
2018-06-29T14:23:46.085Z,32.85
2018-06-29T14:26:14.494Z,32.87
2018-06-29T14:28:42.883Z,32.96
2018-06-29T14:31:12.278Z,32.96
2018-06-29T14:33:40.679Z,32.92
2018-06-29T14:36:09.057Z,32.80
2018-06-29T14:38:37.586Z,32.75
2018-06-29T14:41:06.021Z,32.75
2018-06-29T14:43:34.478Z,32.74
2018-06-29T14:46:02.863Z,32.70
2018-06-29T14:48:31.254Z,32.61
2018-06-29T14:50:59.831Z,32.54
2018-06-29T14:53:28.337Z,32.39
2018-06-29T14:55:56.995Z,32.23
2018-06-29T14:58:25.471Z,32.09
2018-06-29T15:00:53.976Z,32.00
2018-06-29T15:03:22.436Z,31.97
2018-06-29T15:05:50.815Z,31.90
2018-06-29T15:08:20.109Z,31.76
2018-06-29T15:10:49.055Z,31.74
2018-06-29T15:13:17.451Z,31.70
2018-06-29T15:15:45.925Z,31.61
2018-06-29T15:18:14.621Z,31.53
2018-06-29T15:20:43.044Z,31.55
2018-06-29T15:23:11.468Z,31.57
2018-06-29T15:25:39.904Z,31.53
2018-06-29T15:28:08.285Z,31.43
2018-06-29T15:30:37.087Z,31.39
2018-06-29T15:33:05.827Z,31.38
2018-06-29T15:35:34.227Z,31.40
2018-06-29T15:38:03.344Z,31.43
2018-06-29T15:40:31.727Z,31.41
2018-06-29T15:43:00.184Z,31.37
2018-06-29T15:45:28.684Z,31.38
2018-06-29T15:47:57.143Z,31.47
2018-06-29T15:50:25.483Z,31.59
2018-06-29T15:52:54.259Z,31.71
2018-06-29T15:55:22.664Z,31.86
2018-06-29T15:57:51.027Z,31.90
2018-06-29T16:00:19.427Z,32.02
2018-06-29T16:02:47.795Z,32.21
2018-06-29T16:05:16.361Z,32.71
2018-06-29T16:07:44.944Z,33.31
2018-06-29T16:10:13.458Z,34.00
2018-06-29T16:12:41.927Z,34.69
2018-06-29T16:15:10.393Z,35.27
2018-06-29T16:17:38.788Z,35.72
2018-06-29T16:20:07.205Z,36.09
2018-06-29T16:22:35.631Z,36.21
2018-06-29T16:25:04.101Z,36.32
2018-06-29T16:27:32.811Z,36.41
2018-06-29T16:30:01.783Z,36.74
2018-06-29T16:32:30.264Z,37.05
2018-06-29T16:34:58.656Z,37.32
2018-06-29T16:37:27.053Z,37.33
2018-06-29T16:39:55.408Z,37.16
2018-06-29T16:42:23.895Z,37.10
2018-06-29T16:44:52.347Z,37.02
2018-06-29T16:47:20.708Z,37.13
2018-06-29T16:49:49.123Z,37.02
2018-06-29T16:52:17.659Z,36.96
2018-06-29T16:54:46.055Z,36.97
2018-06-29T16:57:14.504Z,36.88
2018-06-29T16:59:43.523Z,36.73
2018-06-29T17:02:11.944Z,36.60
2018-06-29T17:04:40.319Z,36.28
2018-06-29T17:07:08.758Z,36.19
2018-06-29T17:09:37.187Z,35.99
2018-06-29T17:12:06.087Z,35.85
2018-06-29T17:14:34.541Z,35.73
2018-06-29T17:17:03.081Z,35.55
2018-06-29T17:19:31.504Z,35.41
2018-06-29T17:21:59.967Z,35.09
2018-06-29T17:24:28.386Z,34.74
2018-06-29T17:26:56.840Z,34.39
2018-06-29T17:29:26.147Z,34.11
2018-06-29T17:31:54.631Z,33.79
2018-06-29T17:34:23.060Z,33.56
2018-06-29T17:36:51.311Z,33.32
2018-06-29T17:39:19.770Z,33.06
2018-06-29T17:41:48.160Z,32.81
2018-06-29T17:44:16.556Z,32.68
2018-06-29T17:46:44.951Z,32.59
2018-06-29T17:49:13.331Z,32.51
2018-06-29T17:51:41.959Z,32.34
2018-06-29T17:54:10.357Z,32.12
2018-06-29T17:56:38.762Z,31.99
2018-06-29T17:59:07.205Z,31.69
2018-06-29T18:01:35.619Z,31.32
2018-06-29T18:04:04.077Z,30.99
2018-06-29T18:06:32.460Z,30.72
2018-06-29T18:09:00.914Z,30.46
2018-06-29T18:11:29.402Z,30.28
2018-06-29T18:13:57.740Z,30.21
2018-06-29T18:16:26.089Z,30.04
2018-06-29T18:18:54.595Z,29.91
2018-06-29T18:21:22.903Z,29.77
2018-06-29T18:23:51.234Z,29.66
2018-06-29T18:26:19.636Z,29.54
2018-06-29T18:28:48.078Z,29.37
2018-06-29T18:31:16.490Z,29.24
2018-06-29T18:33:44.799Z,29.15
2018-06-29T18:36:13.264Z,29.05
2018-06-29T18:38:41.667Z,28.97
2018-06-29T18:41:10.152Z,28.92
2018-06-29T18:43:38.510Z,28.81
2018-06-29T18:46:06.994Z,28.76
2018-06-29T18:48:35.388Z,28.65
2018-06-29T18:51:03.836Z,28.56
2018-06-29T18:53:32.983Z,28.50
2018-06-29T18:56:01.421Z,28.42
2018-06-29T18:58:29.938Z,28.38
2018-06-29T19:00:58.410Z,28.31
2018-06-29T19:03:26.903Z,28.25
2018-06-29T19:05:55.280Z,28.17
2018-06-29T19:08:23.659Z,28.11
2018-06-29T19:10:52.091Z,28.04
2018-06-29T19:13:20.547Z,27.96
2018-06-29T19:15:48.864Z,27.88
2018-06-29T19:18:17.240Z,27.82
2018-06-29T19:20:45.661Z,27.76
2018-06-29T19:23:14.207Z,27.73
2018-06-29T19:25:42.540Z,27.66
2018-06-29T19:28:10.857Z,27.60
2018-06-29T19:30:39.296Z,27.54
2018-06-29T19:33:07.739Z,27.45
2018-06-29T19:35:36.159Z,27.38
2018-06-29T19:38:04.828Z,27.29
2018-06-29T19:40:33.528Z,27.23
2018-06-29T19:43:02.102Z,27.17
2018-06-29T19:45:31.112Z,27.11
2018-06-29T19:47:59.812Z,27.06
2018-06-29T19:50:28.259Z,27.03
2018-06-29T19:52:56.655Z,26.97
2018-06-29T19:55:25.257Z,26.92
2018-06-29T19:57:53.594Z,26.87
2018-06-29T20:00:21.970Z,26.85
2018-06-29T20:02:50.278Z,26.81
2018-06-29T20:05:18.859Z,26.79
2018-06-29T20:07:47.191Z,26.73
2018-06-29T20:10:15.531Z,26.69
2018-06-29T20:12:43.892Z,26.62
2018-06-29T20:15:12.285Z,26.55
2018-06-29T20:17:40.628Z,26.49
2018-06-29T20:20:09.803Z,26.42
2018-06-29T20:22:38.167Z,26.28
2018-06-29T20:25:06.867Z,26.23
2018-06-29T20:27:35.646Z,26.25
2018-06-29T20:30:04.192Z,26.19
2018-06-29T20:32:32.532Z,26.13
2018-06-29T20:35:00.833Z,26.06
2018-06-29T20:37:29.359Z,26.00
2018-06-29T20:39:57.683Z,25.91
2018-06-29T20:42:26.199Z,25.87
2018-06-29T20:44:54.544Z,25.79
2018-06-29T20:47:22.843Z,25.71
2018-06-29T20:49:51.175Z,25.70
2018-06-29T20:52:19.874Z,25.62
2018-06-29T20:54:48.207Z,25.66
2018-06-29T20:57:16.601Z,25.66
2018-06-29T20:59:44.938Z,25.66
2018-06-29T21:02:13.306Z,25.67
2018-06-29T21:04:41.819Z,25.60
2018-06-29T21:07:10.032Z,25.68
2018-06-29T21:09:38.411Z,25.65
2018-06-29T21:12:06.783Z,25.61
2018-06-29T21:14:35.143Z,25.56
2018-06-29T21:17:03.478Z,25.53
2018-06-29T21:19:31.760Z,25.50
2018-06-29T21:22:00.123Z,25.45
2018-06-29T21:24:28.419Z,25.38
2018-06-29T21:26:56.823Z,25.34
2018-06-29T21:29:25.191Z,25.31
2018-06-29T21:31:53.548Z,25.25
2018-06-29T21:34:21.896Z,25.22
2018-06-29T21:36:50.229Z,25.18
2018-06-29T21:39:18.551Z,25.13
2018-06-29T21:41:46.922Z,25.04
2018-06-29T21:44:15.220Z,25.06
2018-06-29T21:46:43.596Z,25.02
2018-06-29T21:49:11.935Z,24.98
2018-06-29T21:51:40.267Z,24.95
2018-06-29T21:54:08.700Z,24.92
2018-06-29T21:56:36.995Z,24.90
2018-06-29T21:59:05.358Z,24.86
2018-06-29T22:01:33.679Z,24.82
2018-06-29T22:04:02.025Z,24.79
2018-06-29T22:06:30.451Z,24.75
2018-06-29T22:08:58.860Z,24.71
2018-06-29T22:11:27.200Z,24.68
2018-06-29T22:13:55.520Z,24.65
2018-06-29T22:16:23.871Z,24.62
2018-06-29T22:18:52.219Z,24.59
2018-06-29T22:21:20.597Z,24.57
2018-06-29T22:23:48.999Z,24.56
2018-06-29T22:26:17.353Z,24.51
2018-06-29T22:28:45.709Z,24.49
2018-06-29T22:31:14.111Z,24.49
2018-06-29T22:33:42.427Z,24.46
2018-06-29T22:36:10.803Z,24.44
2018-06-29T22:38:39.114Z,24.43
2018-06-29T22:41:07.451Z,24.41
2018-06-29T22:43:35.808Z,24.37
2018-06-29T22:46:04.155Z,24.36
2018-06-29T22:48:32.482Z,24.35
2018-06-29T22:51:00.796Z,24.32
2018-06-29T22:53:29.143Z,24.31
2018-06-29T22:55:59.319Z,24.28
2018-06-29T22:58:27.711Z,24.27
2018-06-29T23:00:56.036Z,24.23
2018-06-29T23:03:28.709Z,24.21
2018-06-29T23:05:57.079Z,24.17
2018-06-29T23:08:25.395Z,24.15
2018-06-29T23:10:53.768Z,24.12
2018-06-29T23:13:22.196Z,24.08
2018-06-29T23:15:50.519Z,24.05
2018-06-29T23:18:18.996Z,24.03
2018-06-29T23:20:47.327Z,24.01
2018-06-29T23:23:15.633Z,23.98
2018-06-29T23:25:44.059Z,23.95
2018-06-29T23:28:12.516Z,23.93
2018-06-29T23:30:41.182Z,23.93
2018-06-29T23:33:09.691Z,23.91
2018-06-29T23:35:38.057Z,23.88
2018-06-29T23:38:06.879Z,23.85
2018-06-29T23:40:35.207Z,23.80
2018-06-29T23:43:03.670Z,23.75
2018-06-29T23:45:32.178Z,23.73
2018-06-29T23:48:00.547Z,23.69
2018-06-29T23:50:28.855Z,23.64
2018-06-29T23:52:57.283Z,23.61
2018-06-29T23:55:25.719Z,23.57
2018-06-29T23:57:54.089Z,23.55
